Time;durP1;ratioP1;P1;durP2;ratioP2;P2;SDS_P1;SDS_P2;PMS_P1;PMS_P2;Temp;Humidity;BMP_temperature;BMP_pressure;BME280_temperature;BME280_humidity;BME280_pressure;Samples;Min_cycle;Max_cycle;Signal;HPM_P1;HPM_P2
2023/03/20 00:00:27;;;;;;;4.40;2.22;;;;;;;;;;5071565;28;20039;-65
2023/03/20 00:02:53;;;;;;;3.67;1.90;;;;;;;;;;5077651;28;20028;-65
2023/03/20 00:05:20;;;;;;;5.03;2.13;;;;;;;;;;5076241;28;20021;-65
2023/03/20 00:07:46;;;;;;;7.43;2.70;;;;;;;;;;5082455;28;20046;-66
2023/03/20 00:10:11;;;;;;;9.07;2.58;;;;;;;;;;5070151;28;20025;-64
2023/03/20 00:12:37;;;;;;;5.57;2.50;;;;;;;;;;5069650;28;20048;-63
2023/03/20 00:15:04;;;;;;;4.90;2.35;;;;;;;;;;5073665;28;20037;-65
2023/03/20 00:17:29;;;;;;;5.50;2.60;;;;;;;;;;5087224;28;20668;-66
2023/03/20 00:19:54;;;;;;;4.15;2.08;;;;;;;;;;5069156;28;20111;-64
2023/03/20 00:22:21;;;;;;;4.53;2.15;;;;;;;;;;5075313;28;20063;-65
2023/03/20 00:24:46;;;;;;;9.93;2.72;;;;;;;;;;5081599;28;20013;-63
2023/03/20 00:27:13;;;;;;;5.55;2.88;;;;;;;;;;5069226;28;20016;-66
2023/03/20 00:29:38;;;;;;;7.90;3.28;;;;;;;;;;5067585;28;20403;-67
2023/03/20 00:32:04;;;;;;;6.43;2.72;;;;;;;;;;5082875;28;20099;-63
2023/03/20 00:34:30;;;;;;;6.93;3.00;;;;;;;;;;5069275;28;20478;-64
2023/03/20 00:36:55;;;;;;;5.53;2.40;;;;;;;;;;5068899;28;20108;-63
2023/03/20 00:39:21;;;;;;;5.90;2.58;;;;;;;;;;5069292;28;20021;-66
2023/03/20 00:41:53;;;;;;;5.95;2.75;;;;;;;;;;5072370;28;20061;-63
2023/03/20 00:44:26;;;;;;;5.45;3.08;;;;;;;;;;5069537;28;20020;-65
2023/03/20 00:47:01;;;;;;;5.85;2.83;;;;;;;;;;5078844;28;20012;-67
2023/03/20 00:49:28;;;;;;;5.35;3.08;;;;;;;;;;5069995;28;20029;-66
2023/03/20 00:51:54;;;;;;;5.60;2.88;;;;;;;;;;5079971;28;20028;-65
2023/03/20 00:54:19;;;;;;;7.30;3.63;;;;;;;;;;5082553;28;20027;-64
2023/03/20 00:56:49;;;;;;;7.32;2.90;;;;;;;;;;5068554;28;20339;-67
2023/03/20 00:59:19;;;;;;;7.53;2.78;;;;;;;;;;5068971;28;20021;-67
2023/03/20 01:01:45;;;;;;;5.78;2.92;;;;;;;;;;5069166;28;20047;-66
2023/03/20 01:04:14;;;;;;;8.27;3.65;;;;;;;;;;5067405;28;20051;-64
2023/03/20 01:06:40;;;;;;;5.70;2.83;;;;;;;;;;5068789;28;20026;-65
2023/03/20 01:09:05;;;;;;;6.40;2.97;;;;;;;;;;5068920;28;20104;-66
2023/03/20 01:11:31;;;;;;;5.55;2.88;;;;;;;;;;5068888;28;20077;-62
2023/03/20 01:13:56;;;;;;;7.65;3.10;;;;;;;;;;5068306;28;20113;-66
2023/03/20 01:16:23;;;;;;;7.57;2.90;;;;;;;;;;5068628;28;20028;-66
2023/03/20 01:18:49;;;;;;;9.85;5.05;;;;;;;;;;5067969;28;20039;-65
2023/03/20 01:21:14;;;;;;;8.27;4.90;;;;;;;;;;5068550;28;20478;-66
2023/03/20 01:23:42;;;;;;;9.32;4.07;;;;;;;;;;5068525;28;20141;-66
2023/03/20 01:26:35;;;;;;;6.32;3.38;;;;;;;;;;5068767;28;20103;-67
2023/03/20 01:29:00;;;;;;;5.28;2.92;;;;;;;;;;5064298;28;20077;-66
2023/03/20 01:31:25;;;;;;;7.05;3.28;;;;;;;;;;5068752;28;20425;-67
2023/03/20 01:33:51;;;;;;;7.07;2.85;;;;;;;;;;5068181;28;20462;-67
2023/03/20 01:36:18;;;;;;;7.72;3.45;;;;;;;;;;5068483;28;20164;-64
2023/03/20 01:38:44;;;;;;;6.55;2.78;;;;;;;;;;5068289;28;20053;-64
2023/03/20 01:41:15;;;;;;;4.63;2.63;;;;;;;;;;5066488;28;20482;-66
2023/03/20 01:43:41;;;;;;;7.60;3.08;;;;;;;;;;5075881;28;20015;-67
2023/03/20 01:46:22;;;;;;;9.77;2.97;;;;;;;;;;5073574;28;20021;-66
2023/03/20 01:48:56;;;;;;;9.00;3.00;;;;;;;;;;5071736;28;20013;-65
2023/03/20 01:51:26;;;;;;;5.22;3.08;;;;;;;;;;5086986;28;20016;-66
2023/03/20 01:54:00;;;;;;;5.30;3.13;;;;;;;;;;5088721;28;20017;-65
2023/03/20 01:56:27;;;;;;;9.60;3.53;;;;;;;;;;5088226;28;20199;-65
2023/03/20 01:58:57;;;;;;;7.20;3.50;;;;;;;;;;5088961;28;20024;-66
2023/03/20 02:01:23;;;;;;;5.35;2.97;;;;;;;;;;5076266;28;20016;-66
2023/03/20 02:03:49;;;;;;;9.90;2.97;;;;;;;;;;5074619;28;20012;-67
2023/03/20 02:06:15;;;;;;;5.07;3.13;;;;;;;;;;5076212;28;20141;-64
2023/03/20 02:08:50;;;;;;;6.35;3.28;;;;;;;;;;5080211;28;20051;-67
2023/03/20 02:11:17;;;;;;;6.93;3.60;;;;;;;;;;5077960;28;20529;-65
2023/03/20 02:13:43;;;;;;;5.97;2.97;;;;;;;;;;5086941;28;20614;-66
2023/03/20 02:16:15;;;;;;;9.82;3.70;;;;;;;;;;5077808;28;20016;-67
2023/03/20 02:18:42;;;;;;;6.72;3.38;;;;;;;;;;5089059;28;20020;-66
2023/03/20 02:21:26;;;;;;;8.32;3.97;;;;;;;;;;5079563;28;20020;-67
2023/03/20 02:23:51;;;;;;;6.07;3.20;;;;;;;;;;5069085;28;20032;-67
2023/03/20 02:26:27;;;;;;;5.90;3.47;;;;;;;;;;5081334;28;20489;-64
2023/03/20 02:28:53;;;;;;;7.03;3.63;;;;;;;;;;5062842;28;20260;-66
2023/03/20 02:31:27;;;;;;;6.03;3.40;;;;;;;;;;5087907;28;20028;-65
2023/03/20 02:33:52;;;;;;;6.70;3.67;;;;;;;;;;5092866;28;20110;-67
2023/03/20 02:36:33;;;;;;;8.50;3.97;;;;;;;;;;5092104;28;20036;-66
2023/03/20 02:39:06;;;;;;;6.53;3.67;;;;;;;;;;5082725;28;20016;-65
2023/03/20 02:41:41;;;;;;;6.13;3.83;;;;;;;;;;5057038;28;20008;-66
2023/03/20 02:44:06;;;;;;;8.15;3.85;;;;;;;;;;5072012;28;20016;-66
2023/03/20 02:46:43;;;;;;;6.97;4.15;;;;;;;;;;5076524;28;20031;-66
2023/03/20 02:49:35;;;;;;;10.88;3.85;;;;;;;;;;5084446;28;20028;-66
2023/03/20 02:52:15;;;;;;;6.72;3.60;;;;;;;;;;5060577;28;20103;-66
2023/03/20 02:54:55;;;;;;;12.15;4.00;;;;;;;;;;5085466;28;20062;-65
2023/03/20 02:57:36;;;;;;;6.00;3.83;;;;;;;;;;5071110;28;20086;-66
2023/03/20 03:00:08;;;;;;;8.75;3.03;;;;;;;;;;5076236;28;20021;-63
2023/03/20 03:02:37;;;;;;;8.80;3.70;;;;;;;;;;5072041;28;20025;-66
2023/03/20 03:05:16;;;;;;;7.45;3.80;;;;;;;;;;5082253;28;20498;-64
2023/03/20 03:07:44;;;;;;;8.50;3.80;;;;;;;;;;5090862;28;20050;-66
2023/03/20 03:10:11;;;;;;;7.90;3.80;;;;;;;;;;5070041;28;20024;-66
2023/03/20 03:12:42;;;;;;;7.88;3.72;;;;;;;;;;5090633;28;20542;-66
2023/03/20 03:15:19;;;;;;;10.52;3.83;;;;;;;;;;5086314;28;20024;-66
2023/03/20 03:17:46;;;;;;;8.15;3.55;;;;;;;;;;5079739;28;20032;-67
2023/03/20 03:20:23;;;;;;;6.22;3.63;;;;;;;;;;5091609;28;20020;-66
2023/03/20 03:22:49;;;;;;;12.15;4.00;;;;;;;;;;5084389;28;20069;-64
2023/03/20 03:25:14;;;;;;;7.78;3.42;;;;;;;;;;5078651;28;20378;-64
2023/03/20 03:27:41;;;;;;;8.68;4.00;;;;;;;;;;5079516;28;20028;-65
2023/03/20 03:30:10;;;;;;;7.43;4.05;;;;;;;;;;5074910;28;20100;-67
2023/03/20 03:32:39;;;;;;;8.93;4.05;;;;;;;;;;5070643;28;20016;-67
2023/03/20 03:35:05;;;;;;;9.73;4.20;;;;;;;;;;5084306;28;20028;-66
2023/03/20 03:37:37;;;;;;;8.52;4.35;;;;;;;;;;5069669;28;20021;-68
2023/03/20 03:40:06;;;;;;;6.85;3.78;;;;;;;;;;5066936;28;20458;-67
2023/03/20 03:42:37;;;;;;;7.22;3.83;;;;;;;;;;5068366;28;20078;-65
2023/03/20 03:45:07;;;;;;;9.25;4.30;;;;;;;;;;5067318;28;20025;-66
2023/03/20 03:47:43;;;;;;;8.05;3.92;;;;;;;;;;5069909;28;20104;-66
2023/03/20 03:50:11;;;;;;;8.13;3.42;;;;;;;;;;5078661;28;20444;-66
2023/03/20 03:52:37;;;;;;;6.82;4.10;;;;;;;;;;5090399;28;20032;-65
2023/03/20 03:55:05;;;;;;;9.88;4.25;;;;;;;;;;5081716;28;20035;-65
2023/03/20 03:57:36;;;;;;;7.40;3.85;;;;;;;;;;5083691;28;20047;-66
2023/03/20 04:00:05;;;;;;;5.82;4.10;;;;;;;;;;5078586;28;20145;-67
2023/03/20 04:02:31;;;;;;;10.20;3.90;;;;;;;;;;5082497;28;20024;-66
2023/03/20 04:04:57;;;;;;;7.93;3.88;;;;;;;;;;5080393;28;20020;-66
2023/03/20 04:07:26;;;;;;;7.32;3.95;;;;;;;;;;5086851;28;20454;-65
2023/03/20 04:09:51;;;;;;;;;;;;;;;;;;5080978;28;20020;-65
2023/03/20 04:12:36;;;;;;;11.55;4.57;;;;;;;;;;5087329;28;19905;-66
2023/03/20 04:15:02;;;;;;;8.05;4.20;;;;;;;;;;5081360;28;20028;-66
2023/03/20 04:17:28;;;;;;;10.93;3.95;;;;;;;;;;5069914;28;20119;-65
2023/03/20 04:19:53;;;;;;;13.18;5.47;;;;;;;;;;5082209;28;20100;-67
2023/03/20 04:22:19;;;;;;;6.82;4.55;;;;;;;;;;5076149;28;20111;-65
2023/03/20 04:24:44;;;;;;;9.35;4.80;;;;;;;;;;5088747;28;20074;-67
2023/03/20 04:27:10;;;;;;;11.88;5.95;;;;;;;;;;5076296;28;20069;-65
2023/03/20 04:29:36;;;;;;;9.85;5.63;;;;;;;;;;5077313;28;20836;-65
2023/03/20 04:32:01;;;;;;;11.13;5.45;;;;;;;;;;5068051;28;20109;-66
2023/03/20 04:34:26;;;;;;;10.18;5.32;;;;;;;;;;5081446;28;20026;-64
2023/03/20 04:36:52;;;;;;;10.18;5.47;;;;;;;;;;5084844;28;20047;-66
2023/03/20 04:39:17;;;;;;;10.30;5.60;;;;;;;;;;5072051;28;20417;-65
2023/03/20 04:41:42;;;;;;;10.68;6.28;;;;;;;;;;5071885;28;20465;-66
2023/03/20 04:44:07;;;;;;;10.65;6.72;;;;;;;;;;5068434;28;20017;-64
2023/03/20 04:46:33;;;;;;;12.27;6.53;;;;;;;;;;5067610;28;20021;-66
2023/03/20 04:48:58;;;;;;;14.20;6.43;;;;;;;;;;5081979;28;20055;-64
2023/03/20 04:51:23;;;;;;;14.77;7.07;;;;;;;;;;5083758;28;20024;-64
2023/03/20 04:53:49;;;;;;;11.65;7.15;;;;;;;;;;5080065;28;20024;-65
2023/03/20 04:56:14;;;;;;;13.05;6.82;;;;;;;;;;5075497;28;20130;-64
2023/03/20 04:58:39;;;;;;;13.50;7.65;;;;;;;;;;5096055;22;20517;-68
2023/03/20 05:01:05;;;;;;;13.57;7.43;;;;;;;;;;5089010;28;20024;-69
2023/03/20 05:03:30;;;;;;;13.75;6.50;;;;;;;;;;5071354;28;20422;-69
2023/03/20 05:05:55;;;;;;;9.57;6.00;;;;;;;;;;5090219;28;20038;-68
2023/03/20 05:08:20;;;;;;;9.15;5.88;;;;;;;;;;5088869;28;20065;-69
2023/03/20 05:10:46;;;;;;;14.40;6.47;;;;;;;;;;5072390;28;20111;-68
2023/03/20 05:13:11;;;;;;;11.85;6.57;;;;;;;;;;5066290;28;20020;-70
2023/03/20 05:15:36;;;;;;;10.25;6.45;;;;;;;;;;5069659;28;20027;-68
2023/03/20 05:18:02;;;;;;;14.13;6.55;;;;;;;;;;5068163;28;20478;-69
2023/03/20 05:20:27;;;;;;;10.00;6.20;;;;;;;;;;5068683;28;20482;-70
2023/03/20 05:22:52;;;;;;;14.45;6.47;;;;;;;;;;5058912;28;20475;-68
2023/03/20 05:25:17;;;;;;;11.32;6.35;;;;;;;;;;5069272;28;20453;-68
2023/03/20 05:27:44;;;;;;;12.27;6.32;;;;;;;;;;5068520;28;20505;-69
2023/03/20 05:30:10;;;;;;;13.13;6.68;;;;;;;;;;5070224;28;20508;-69
2023/03/20 05:32:35;;;;;;;11.05;6.40;;;;;;;;;;5069211;28;20029;-67
2023/03/20 05:35:00;;;;;;;10.73;6.55;;;;;;;;;;5069415;28;20021;-69
2023/03/20 05:37:26;;;;;;;13.82;6.85;;;;;;;;;;5068936;28;20024;-69
2023/03/20 05:39:51;;;;;;;9.73;6.10;;;;;;;;;;5068862;28;20020;-70
2023/03/20 05:42:16;;;;;;;10.05;5.82;;;;;;;;;;5068693;28;20454;-71
2023/03/20 05:44:41;;;;;;;11.25;6.60;;;;;;;;;;5076256;28;20016;-70
2023/03/20 05:47:07;;;;;;;10.95;5.88;;;;;;;;;;5072034;28;20417;-69
2023/03/20 05:49:32;;;;;;;12.40;5.68;;;;;;;;;;5069080;28;20516;-67
2023/03/20 05:51:57;;;;;;;8.45;5.03;;;;;;;;;;5069432;28;20449;-69
2023/03/20 05:54:22;;;;;;;10.18;5.10;;;;;;;;;;5063831;28;20463;-69
2023/03/20 05:56:48;;;;;;;7.53;4.25;;;;;;;;;;5068533;28;20549;-69
2023/03/20 05:59:13;;;;;;;9.52;4.97;;;;;;;;;;5068421;28;20604;-68
2023/03/20 06:01:38;;;;;;;8.18;4.10;;;;;;;;;;5069076;28;20028;-69
2023/03/20 06:04:03;;;;;;;14.48;5.25;;;;;;;;;;5067693;28;20557;-70
2023/03/20 06:06:28;;;;;;;12.00;5.13;;;;;;;;;;5068376;28;20517;-69
2023/03/20 06:08:54;;;;;;;10.57;4.88;;;;;;;;;;5082803;28;20040;-69
2023/03/20 06:11:20;;;;;;;10.15;4.30;;;;;;;;;;5072733;28;20031;-70
2023/03/20 06:13:45;;;;;;;7.18;3.95;;;;;;;;;;5072111;28;20195;-69
2023/03/20 06:16:10;;;;;;;8.05;4.47;;;;;;;;;;5072164;28;20028;-69
2023/03/20 06:18:37;;;;;;;10.82;4.10;;;;;;;;;;5072594;28;20096;-67
2023/03/20 06:21:04;;;;;;;8.90;4.38;;;;;;;;;;5072929;28;20032;-68
2023/03/20 06:23:29;;;;;;;9.48;3.97;;;;;;;;;;5072146;28;20037;-68
2023/03/20 06:25:55;;;;;;;6.80;3.80;;;;;;;;;;5066987;28;20061;-70
2023/03/20 06:28:21;;;;;;;8.88;4.35;;;;;;;;;;5071761;28;20100;-69
2023/03/20 06:30:46;;;;;;;9.55;4.03;;;;;;;;;;5072043;28;20489;-72
2023/03/20 06:33:11;;;;;;;7.25;3.78;;;;;;;;;;5071790;28;20498;-69
2023/03/20 06:35:36;;;;;;;8.52;4.32;;;;;;;;;;5071548;28;20024;-68
2023/03/20 06:38:02;;;;;;;6.95;4.03;;;;;;;;;;5071958;28;20507;-69
2023/03/20 06:40:27;;;;;;;12.07;4.90;;;;;;;;;;5071789;28;20012;-68
2023/03/20 06:42:53;;;;;;;7.13;3.78;;;;;;;;;;5071689;28;20024;-69
2023/03/20 06:45:18;;;;;;;8.20;4.53;;;;;;;;;;5076824;28;20019;-68
2023/03/20 06:47:45;;;;;;;9.93;4.10;;;;;;;;;;5083281;28;20019;-69
2023/03/20 06:50:11;;;;;;;8.35;4.63;;;;;;;;;;5079024;28;20032;-67
2023/03/20 06:52:36;;;;;;;9.23;4.80;;;;;;;;;;5071953;28;20550;-69
2023/03/20 06:55:02;;;;;;;14.05;4.57;;;;;;;;;;5071981;28;20021;-69
2023/03/20 06:57:27;;;;;;;10.00;4.90;;;;;;;;;;5071312;28;20039;-69
2023/03/20 06:59:52;;;;;;;14.40;5.95;;;;;;;;;;5071099;28;20020;-69
2023/03/20 07:02:18;;;;;;;10.35;5.75;;;;;;;;;;5072537;28;20508;-68
2023/03/20 07:04:43;;;;;;;13.77;7.25;;;;;;;;;;5071939;28;20094;-69
2023/03/20 07:07:08;;;;;;;12.10;6.40;;;;;;;;;;5053737;28;20036;-68
2023/03/20 07:09:34;;;;;;;12.88;6.70;;;;;;;;;;5083100;28;20028;-69
2023/03/20 07:11:59;;;;;;;15.48;7.70;;;;;;;;;;5072062;28;20391;-68
2023/03/20 07:14:24;;;;;;;15.77;8.15;;;;;;;;;;5071061;28;20108;-70
2023/03/20 07:16:50;;;;;;;26.02;12.57;;;;;;;;;;5070080;28;20078;-69
2023/03/20 07:19:15;;;;;;;28.63;12.95;;;;;;;;;;5071627;28;20012;-69
2023/03/20 07:21:41;;;;;;;25.65;12.57;;;;;;;;;;5071118;28;20078;-68
2023/03/20 07:24:07;;;;;;;31.58;13.35;;;;;;;;;;5071112;28;20016;-67
2023/03/20 07:26:32;;;;;;;34.90;14.50;;;;;;;;;;5066003;28;20422;-69
2023/03/20 07:28:57;;;;;;;28.02;13.32;;;;;;;;;;5071524;28;20029;-69
2023/03/20 07:31:24;;;;;;;28.88;14.60;;;;;;;;;;5071410;28;20437;-69
2023/03/20 07:33:49;;;;;;;29.83;14.48;;;;;;;;;;5071419;28;20474;-69
2023/03/20 07:36:14;;;;;;;26.60;12.40;;;;;;;;;;5071193;28;20096;-69
2023/03/20 07:38:39;;;;;;;25.90;12.80;;;;;;;;;;5053222;28;20535;-68
2023/03/20 07:41:05;;;;;;;26.35;12.35;;;;;;;;;;5071352;28;20161;-69
2023/03/20 07:43:30;;;;;;;25.65;12.35;;;;;;;;;;5071689;28;20369;-70
2023/03/20 07:45:55;;;;;;;34.47;14.52;;;;;;;;;;5080566;28;20096;-69
2023/03/20 07:48:21;;;;;;;33.90;15.05;;;;;;;;;;5078717;28;20115;-69
2023/03/20 07:50:46;;;;;;;39.20;16.63;;;;;;;;;;5071013;28;20408;-69
2023/03/20 07:53:11;;;;;;;31.60;16.75;;;;;;;;;;5070849;28;20020;-68
2023/03/20 07:55:37;;;;;;;38.58;18.15;;;;;;;;;;5070452;28;20024;-68
2023/03/20 07:58:02;;;;;;;47.55;19.52;;;;;;;;;;5069679;28;20142;-70
2023/03/20 08:00:27;;;;;;;50.05;20.40;;;;;;;;;;5069994;28;20070;-69
2023/03/20 08:02:52;;;;;;;45.42;19.58;;;;;;;;;;5070513;28;20082;-69
2023/03/20 08:05:18;;;;;;;47.85;19.05;;;;;;;;;;5070583;28;20028;-68
2023/03/20 08:07:44;;;;;;;46.67;20.85;;;;;;;;;;5071325;28;20494;-68
2023/03/20 08:10:10;;;;;;;42.05;19.92;;;;;;;;;;5072649;28;20024;-68
2023/03/20 08:12:35;;;;;;;48.63;19.05;;;;;;;;;;5070415;28;20024;-69
2023/03/20 08:15:00;;;;;;;51.17;20.95;;;;;;;;;;5070848;28;20029;-69
2023/03/20 08:17:28;;;;;;;46.40;20.42;;;;;;;;;;5070232;28;20028;-69
2023/03/20 08:19:54;;;;;;;44.35;21.15;;;;;;;;;;5070298;28;20065;-68
2023/03/20 08:22:19;;;;;;;49.72;22.83;;;;;;;;;;5070338;28;20025;-69
2023/03/20 08:24:44;;;;;;;51.70;21.77;;;;;;;;;;5065834;28;20170;-68
2023/03/20 08:27:10;;;;;;;53.63;22.80;;;;;;;;;;5069696;28;20019;-68
2023/03/20 08:29:35;;;;;;;47.97;22.38;;;;;;;;;;5070906;28;20040;-68
2023/03/20 08:32:00;;;;;;;54.38;23.25;;;;;;;;;;5069776;28;20035;-67
2023/03/20 08:34:25;;;;;;;47.95;21.63;;;;;;;;;;5070253;28;20062;-69
2023/03/20 08:36:51;;;;;;;53.92;21.98;;;;;;;;;;5070115;28;20073;-69
2023/03/20 08:39:16;;;;;;;49.78;22.90;;;;;;;;;;5070358;28;20012;-67
2023/03/20 08:41:44;;;;;;;43.80;21.88;;;;;;;;;;5070177;28;20012;-69
2023/03/20 08:44:10;;;;;;;48.95;22.02;;;;;;;;;;5072856;28;20358;-69
2023/03/20 08:46:35;;;;;;;47.50;22.83;;;;;;;;;;5080977;28;20030;-70
2023/03/20 08:49:01;;;;;;;47.13;23.45;;;;;;;;;;5072094;28;20040;-68
2023/03/20 08:51:26;;;;;;;52.80;23.67;;;;;;;;;;5069965;28;20108;-69
2023/03/20 08:53:51;;;;;;;50.47;22.40;;;;;;;;;;5069978;28;20116;-68
2023/03/20 08:56:16;;;;;;;52.97;22.92;;;;;;;;;;5069644;28;20035;-72
2023/03/20 08:58:42;;;;;;;56.90;23.70;;;;;;;;;;5069361;28;20597;-68
2023/03/20 09:01:08;;;;;;;52.45;23.58;;;;;;;;;;5069489;28;20021;-68
2023/03/20 09:03:34;;;;;;;56.97;24.20;;;;;;;;;;5069427;28;20017;-69
2023/03/20 09:05:59;;;;;;;51.92;23.05;;;;;;;;;;5069330;28;20023;-70
2023/03/20 09:08:25;;;;;;;55.78;24.48;;;;;;;;;;5071523;28;20530;-68
2023/03/20 09:10:50;;;;;;;46.58;20.60;;;;;;;;;;5069430;28;20032;-70
2023/03/20 09:13:15;;;;;;;58.80;24.23;;;;;;;;;;5070194;28;20047;-69
2023/03/20 09:15:41;;;;;;;47.78;22.05;;;;;;;;;;5069117;28;20021;-69
2023/03/20 09:18:06;;;;;;;51.58;23.13;;;;;;;;;;5069367;28;20073;-68
2023/03/20 09:20:31;;;;;;;55.00;23.58;;;;;;;;;;5069814;28;20094;-68
2023/03/20 09:22:57;;;;;;;64.28;25.52;;;;;;;;;;5070402;28;20028;-68
2023/03/20 09:25:22;;;;;;;62.15;24.33;;;;;;;;;;5065336;28;20032;-68
2023/03/20 09:27:56;;;;;;;59.67;23.70;;;;;;;;;;5069455;28;20017;-69
2023/03/20 09:30:22;;;;;;;54.05;24.70;;;;;;;;;;5051137;28;20021;-68
2023/03/20 09:32:48;;;;;;;58.00;24.70;;;;;;;;;;5069491;28;20081;-68
2023/03/20 09:35:13;;;;;;;55.25;24.40;;;;;;;;;;5069486;28;20104;-68
2023/03/20 09:37:39;;;;;;;58.72;23.98;;;;;;;;;;5069714;28;20024;-69
2023/03/20 09:40:04;;;;;;;64.75;24.27;;;;;;;;;;5069002;28;20126;-69
2023/03/20 09:42:48;;;;;;;61.42;24.70;;;;;;;;;;5069537;28;20024;-68
2023/03/20 09:45:20;;;;;;;57.25;24.10;;;;;;;;;;5077559;28;20032;-69
2023/03/20 09:48:06;;;;;;;48.30;22.48;;;;;;;;;;5077510;28;20048;-69
2023/03/20 09:50:34;;;;;;;51.53;23.27;;;;;;;;;;5068670;28;20024;-67
2023/03/20 09:53:05;;;;;;;55.35;23.80;;;;;;;;;;5069573;28;20047;-69
2023/03/20 09:55:35;;;;;;;56.70;24.52;;;;;;;;;;5069305;28;20039;-69
2023/03/20 09:58:26;;;;;;;50.63;22.10;;;;;;;;;;5068409;28;20032;-69
2023/03/20 10:00:55;;;;;;;63.63;24.25;;;;;;;;;;5051595;28;20051;-69
2023/03/20 10:03:21;;;;;;;;;;;;;;;;;;5051297;28;20031;-68
2023/03/20 10:05:52;;;;;;;54.88;23.75;;;;;;;;;;5069412;28;20000;-69
2023/03/20 10:08:19;;;;;;;53.92;23.95;;;;;;;;;;5072023;28;20024;-70
2023/03/20 10:10:45;;;;;;;54.45;22.17;;;;;;;;;;5069250;28;20363;-68
2023/03/20 10:13:16;;;;;;;45.88;21.85;;;;;;;;;;5069096;28;20479;-69
2023/03/20 10:15:53;;;;;;;52.65;22.90;;;;;;;;;;5069319;28;20081;-69
2023/03/20 10:18:21;;;;;;;54.63;24.15;;;;;;;;;;5066292;28;20029;-68
2023/03/20 10:20:50;;;;;;;47.27;22.33;;;;;;;;;;5068834;28;20012;-68
2023/03/20 10:23:24;;;;;;;50.60;22.17;;;;;;;;;;5068752;28;20104;-68
2023/03/20 10:25:52;;;;;;;52.30;23.65;;;;;;;;;;5063432;28;20043;-68
2023/03/20 10:28:24;;;;;;;63.55;23.90;;;;;;;;;;5068154;28;20021;-70
2023/03/20 10:30:52;;;;;;;52.88;22.67;;;;;;;;;;5069084;28;20633;-68
2023/03/20 10:33:36;;;;;;;62.67;24.38;;;;;;;;;;5068823;28;20032;-69
2023/03/20 10:36:12;;;;;;;64.88;22.67;;;;;;;;;;5068563;28;20115;-69
2023/03/20 10:38:44;;;;;;;62.03;23.33;;;;;;;;;;5068909;28;20025;-69
2023/03/20 10:41:13;;;;;;;55.50;23.23;;;;;;;;;;5069033;28;20031;-70
2023/03/20 10:43:39;;;;;;;55.10;24.75;;;;;;;;;;5069057;28;20008;-67
2023/03/20 10:46:09;;;;;;;60.38;24.65;;;;;;;;;;5079090;28;20436;-69
2023/03/20 10:48:37;;;;;;;56.83;23.17;;;;;;;;;;5068842;28;20029;-69
2023/03/20 10:51:03;;;;;;;57.45;24.55;;;;;;;;;;5069208;28;20040;-68
2023/03/20 10:53:28;;;;;;;56.17;25.13;;;;;;;;;;5071525;28;20082;-70
2023/03/20 10:55:57;;;;;;;67.97;25.50;;;;;;;;;;5072371;28;20035;-68
2023/03/20 11:00:53;;;;;;;51.92;23.20;;;;;;;;;;5068808;28;20139;-64
2023/03/20 11:03:24;;;;;;;64.50;25.70;;;;;;;;;;5070730;28;20016;-67
2023/03/20 11:06:10;;;;;;;60.80;23.80;;;;;;;;;;5070991;28;20013;-65
2023/03/20 11:08:38;;;;;;;63.67;26.85;;;;;;;;;;5060943;28;20107;-69
2023/03/20 11:11:03;;;;;;;58.33;26.40;;;;;;;;;;5071477;28;20030;-68
2023/03/20 11:13:33;;;;;;;53.42;22.77;;;;;;;;;;5071122;28;20016;-68
2023/03/20 11:16:19;;;;;;;52.40;23.90;;;;;;;;;;5071348;28;20021;-70
2023/03/20 11:18:45;;;;;;;57.38;24.92;;;;;;;;;;5070670;28;20439;-68
2023/03/20 11:21:26;;;;;;;64.35;26.58;;;;;;;;;;5071718;28;20094;-68
2023/03/20 11:23:52;;;;;;;60.80;25.70;;;;;;;;;;5071142;28;20025;-68
2023/03/20 11:26:32;;;;;;;55.50;23.20;;;;;;;;;;5065741;28;20031;-69
2023/03/20 11:28:58;;;;;;;58.67;25.65;;;;;;;;;;5066492;28;20124;-69
2023/03/20 11:31:26;;;;;;;57.50;24.50;;;;;;;;;;5071627;28;20154;-69
2023/03/20 11:34:00;;;;;;;51.67;23.38;;;;;;;;;;5070967;28;20036;-67
2023/03/20 11:36:28;;;;;;;53.42;23.80;;;;;;;;;;5058490;28;20028;-68
2023/03/20 11:38:57;;;;;;;57.33;24.30;;;;;;;;;;5071326;28;20106;-73
2023/03/20 11:41:24;;;;;;;58.30;24.85;;;;;;;;;;5071240;28;20510;-65
2023/03/20 11:43:50;;;;;;;60.25;24.58;;;;;;;;;;5070565;28;20514;-65
2023/03/20 11:46:15;;;;;;;53.35;23.90;;;;;;;;;;5066126;28;20021;-67
2023/03/20 11:48:47;;;;;;;56.88;25.15;;;;;;;;;;5069553;28;20024;-68
2023/03/20 11:51:19;;;;;;;55.97;22.67;;;;;;;;;;5070436;28;20027;-67
2023/03/20 11:53:45;;;;;;;49.72;22.80;;;;;;;;;;5070384;28;20031;-65
2023/03/20 11:56:19;;;;;;;56.60;24.70;;;;;;;;;;5070129;28;20032;-68
2023/03/20 11:58:57;;;;;;;51.75;23.88;;;;;;;;;;5069834;28;20100;-67
2023/03/20 12:01:23;;;;;;;51.47;23.02;;;;;;;;;;5070081;28;20025;-69
2023/03/20 12:03:57;;;;;;;50.30;22.88;;;;;;;;;;5068884;28;20356;-68
2023/03/20 12:06:26;;;;;;;55.17;25.17;;;;;;;;;;5070088;28;20854;-68
2023/03/20 12:09:01;;;;;;;54.55;21.52;;;;;;;;;;5070164;28;20536;-68
2023/03/20 12:11:32;;;;;;;44.55;21.27;;;;;;;;;;5069806;28;20050;-65
2023/03/20 12:13:59;;;;;;;45.65;20.30;;;;;;;;;;5070034;28;20104;-68
2023/03/20 12:16:26;;;;;;;42.58;21.17;;;;;;;;;;5068058;28;20082;-68
2023/03/20 12:18:54;;;;;;;44.55;19.55;;;;;;;;;;5069457;28;20070;-68
2023/03/20 12:21:26;;;;;;;42.15;20.38;;;;;;;;;;5069922;28;20024;-67
2023/03/20 12:24:00;;;;;;;39.75;18.60;;;;;;;;;;5069475;28;20021;-66
2023/03/20 12:26:25;;;;;;;41.35;19.23;;;;;;;;;;5056933;28;20100;-66
2023/03/20 12:28:55;;;;;;;44.58;18.75;;;;;;;;;;5070005;28;20100;-67
2023/03/20 12:31:35;;;;;;;41.40;18.65;;;;;;;;;;5070078;28;20069;-66
2023/03/20 12:34:05;;;;;;;42.47;18.70;;;;;;;;;;5073410;28;20027;-67
2023/03/20 12:36:34;;;;;;;39.08;17.17;;;;;;;;;;5075665;28;20016;-68
2023/03/20 12:39:03;;;;;;;39.00;17.67;;;;;;;;;;5073635;28;20012;-67
2023/03/20 12:41:29;;;;;;;;;;;;;;;;;;5070762;28;20616;-68
2023/03/20 12:44:04;;;;;;;33.28;16.73;;;;;;;;;;5065561;28;19943;-66
2023/03/20 12:46:47;;;;;;;36.90;18.23;;;;;;;;;;5065829;28;20077;-68
2023/03/20 12:49:36;;;;;;;36.80;17.55;;;;;;;;;;5069781;28;20072;-68
2023/03/20 12:52:09;;;;;;;39.30;17.25;;;;;;;;;;5031876;28;20040;-66
2023/03/20 12:54:35;;;;;;;44.85;15.73;;;;;;;;;;5069159;28;20097;-68
2023/03/20 12:57:21;;;;;;;40.67;17.15;;;;;;;;;;5068652;28;20482;-65
2023/03/20 12:59:49;;;;;;;34.38;16.08;;;;;;;;;;5058388;28;20433;-67
2023/03/20 13:02:37;;;;;;;36.83;15.70;;;;;;;;;;5068946;28;20012;-66
2023/03/20 13:05:05;;;;;;;34.97;16.10;;;;;;;;;;5060570;28;20048;-69
2023/03/20 13:07:30;;;;;;;34.30;15.32;;;;;;;;;;5068802;28;20048;-67
2023/03/20 13:10:09;;;;;;;30.25;15.52;;;;;;;;;;5069086;28;20075;-68
2023/03/20 13:12:46;;;;;;;32.63;13.80;;;;;;;;;;5069487;28;20443;-69
2023/03/20 13:15:28;;;;;;;32.58;13.45;;;;;;;;;;5068396;28;20021;-64
2023/03/20 13:18:00;;;;;;;32.25;13.63;;;;;;;;;;5067312;28;20028;-66
2023/03/20 13:20:28;;;;;;;34.53;14.18;;;;;;;;;;5069354;28;20020;-65
2023/03/20 13:22:54;;;;;;;29.92;14.10;;;;;;;;;;5069563;28;20095;-66
2023/03/20 13:25:42;;;;;;;31.13;12.80;;;;;;;;;;5059860;28;20044;-66
2023/03/20 13:28:20;;;;;;;31.75;12.05;;;;;;;;;;5063138;28;20043;-66
2023/03/20 13:30:46;;;;;;;30.90;13.00;;;;;;;;;;5068852;28;20025;-67
2023/03/20 13:33:30;;;;;;;36.95;14.73;;;;;;;;;;5068455;28;20666;-69
2023/03/20 13:36:01;;;;;;;27.45;12.10;;;;;;;;;;5065556;28;20075;-67
2023/03/20 13:38:29;;;;;;;30.13;13.82;;;;;;;;;;5068601;28;20028;-66
2023/03/20 13:40:59;;;;;;;24.27;12.48;;;;;;;;;;5068858;28;20025;-65
2023/03/20 13:43:30;;;;;;;26.05;12.63;;;;;;;;;;5068559;28;20021;-66
2023/03/20 13:46:06;;;;;;;24.38;11.38;;;;;;;;;;5064749;28;20016;-65
2023/03/20 13:48:31;;;;;;;25.23;11.38;;;;;;;;;;5068721;28;20455;-68
2023/03/20 13:50:57;;;;;;;27.15;12.02;;;;;;;;;;5068571;28;20055;-68
2023/03/20 13:53:25;;;;;;;25.90;12.15;;;;;;;;;;5068267;28;20024;-66
2023/03/20 13:56:07;;;;;;;32.03;14.32;;;;;;;;;;5068041;28;20052;-67
2023/03/20 13:58:35;;;;;;;27.33;12.98;;;;;;;;;;5068007;28;20114;-66
2023/03/20 14:01:09;;;;;;;26.25;11.38;;;;;;;;;;5070143;28;20055;-67
2023/03/20 14:03:36;;;;;;;31.00;12.85;;;;;;;;;;5070609;28;20074;-68
2023/03/20 14:06:15;;;;;;;24.58;12.07;;;;;;;;;;5068033;28;20021;-67
2023/03/20 14:08:46;;;;;;;27.02;13.27;;;;;;;;;;5068133;28;20024;-66
2023/03/20 14:11:12;;;;;;;29.63;13.38;;;;;;;;;;5068566;28;20052;-67
2023/03/20 14:13:37;;;;;;;28.63;12.63;;;;;;;;;;5067974;28;20043;-68
2023/03/20 14:16:06;;;;;;;27.35;12.50;;;;;;;;;;5068804;28;20028;-67
2023/03/20 14:18:31;;;;;;;;;;;;;;;;;;5067429;28;20036;-66
2023/03/20 14:20:59;;;;;;;24.75;12.05;;;;;;;;;;5067451;28;20335;-68
2023/03/20 14:23:31;;;;;;;24.20;12.00;;;;;;;;;;5067909;28;20012;-66
2023/03/20 14:25:58;;;;;;;25.20;12.68;;;;;;;;;;5054745;28;20021;-67
2023/03/20 14:28:25;;;;;;;22.73;11.35;;;;;;;;;;5066119;28;20024;-67
2023/03/20 14:31:09;;;;;;;23.30;11.17;;;;;;;;;;5071565;28;20622;-67
2023/03/20 14:33:40;;;;;;;24.90;10.73;;;;;;;;;;5071767;28;20032;-69
2023/03/20 14:36:08;;;;;;;24.17;11.88;;;;;;;;;;5071734;28;20123;-66
2023/03/20 14:38:34;;;;;;;27.23;11.40;;;;;;;;;;5071615;28;20097;-64